Time;durP1;ratioP1;P1;durP2;ratioP2;P2;SDS_P1;SDS_P2;PMS_P1;PMS_P2;Temp;Humidity;BMP_temperature;BMP_pressure;BME280_temperature;BME280_humidity;BME280_pressure;Samples;Min_cycle;Max_cycle;Signal;HPM_P1;HPM_P2
2021/12/26 00:01:26;;;;;;;3.72;3.42;;;19.10;44.60;;;;;;3892730;22;20110;-87
2021/12/26 00:02:59;;;;;;;4.28;3.58;;;19.10;44.60;;;;;;3893202;22;20094;-87
2021/12/26 00:04:32;;;;;;;3.80;3.20;;;19.10;44.50;;;;;;3893913;22;20020;-87
2021/12/26 00:06:06;;;;;;;4.00;3.50;;;19.20;44.50;;;;;;3893347;22;20705;-87
2021/12/26 00:07:38;;;;;;;4.53;3.80;;;19.10;44.50;;;;;;3893783;22;20016;-87
2021/12/26 00:09:10;;;;;;;4.30;3.85;;;19.20;44.50;;;;;;3893836;22;20031;-88
2021/12/26 00:10:42;;;;;;;4.07;3.25;;;19.20;44.50;;;;;;3892877;22;20059;-88
2021/12/26 00:12:13;;;;;;;4.32;3.60;;;19.10;44.50;;;;;;3893770;22;20385;-86
2021/12/26 00:13:45;;;;;;;4.00;3.47;;;19.10;44.40;;;;;;3892407;22;20085;-85
2021/12/26 00:15:17;;;;;;;4.40;3.70;;;19.10;44.40;;;;;;3891808;22;20024;-88
2021/12/26 00:16:49;;;;;;;4.85;3.83;;;19.10;44.40;;;;;;3893458;22;20027;-88
2021/12/26 00:18:21;;;;;;;4.10;3.70;;;19.10;44.40;;;;;;3893922;22;20066;-86
2021/12/26 00:19:54;;;;;;;4.57;3.70;;;19.20;45.20;;;;;;3892787;22;20539;-88
2021/12/26 00:21:26;;;;;;;4.38;3.63;;;19.10;44.50;;;;;;3893852;22;20026;-88
2021/12/26 00:22:57;;;;;;;4.25;3.80;;;19.10;44.50;;;;;;3893338;22;20390;-88
2021/12/26 00:24:29;;;;;;;4.80;3.90;;;19.10;44.40;;;;;;3892791;22;20015;-88
2021/12/26 00:26:01;;;;;;;4.18;3.60;;;19.10;44.40;;;;;;3892696;22;20019;-87
2021/12/26 00:27:33;;;;;;;4.65;3.80;;;19.10;44.40;;;;;;3893142;22;20597;-87
2021/12/26 00:29:05;;;;;;;4.93;3.72;;;19.10;44.40;;;;;;3894015;22;20455;-89
2021/12/26 00:30:36;;;;;;;5.13;3.70;;;19.20;44.40;;;;;;3891630;22;20384;-89
2021/12/26 00:32:08;;;;;;;4.35;3.53;;;19.10;44.30;;;;;;3893260;22;20270;-88
2021/12/26 00:33:40;;;;;;;4.00;3.60;;;19.10;44.40;;;;;;3892957;22;20043;-88
2021/12/26 00:35:14;;;;;;;4.25;3.75;;;19.10;44.30;;;;;;3892240;22;20016;-88
2021/12/26 00:36:46;;;;;;;5.05;3.88;;;19.10;44.30;;;;;;3893498;22;20446;-86
2021/12/26 00:38:18;;;;;;;3.92;3.30;;;19.10;44.30;;;;;;3893729;22;20016;-87
2021/12/26 00:39:50;;;;;;;4.75;3.88;;;19.10;44.30;;;;;;3893848;22;20065;-88
2021/12/26 00:41:21;;;;;;;5.53;4.10;;;19.10;44.30;;;;;;3893773;22;20066;-88
2021/12/26 00:42:53;;;;;;;5.00;4.13;;;19.10;44.30;;;;;;3892933;22;20016;-88
2021/12/26 00:44:25;;;;;;;4.65;4.07;;;19.10;44.30;;;;;;3893436;22;20085;-88
2021/12/26 00:45:57;;;;;;;4.47;3.90;;;19.10;44.30;;;;;;3891568;22;20011;-87
2021/12/26 00:47:29;;;;;;;4.07;3.60;;;19.10;44.30;;;;;;3894008;22;20050;-88
2021/12/26 00:49:01;;;;;;;4.35;3.72;;;19.10;44.30;;;;;;3893049;22;20327;-87
2021/12/26 00:50:37;;;;;;;4.68;3.92;;;19.10;44.30;;;;;;3893078;22;20019;-88
2021/12/26 00:52:09;;;;;;;5.13;4.20;;;19.10;44.90;;;;;;3893344;22;20103;-88
2021/12/26 00:53:41;;;;;;;4.97;3.90;;;19.10;44.30;;;;;;3892508;22;20019;-88
2021/12/26 00:55:13;;;;;;;4.72;3.97;;;19.10;44.30;;;;;;3892953;22;20640;-87
2021/12/26 00:56:45;;;;;;;5.57;4.40;;;19.10;44.20;;;;;;3893365;22;20146;-86
2021/12/26 00:58:17;;;;;;;4.32;3.92;;;19.10;44.30;;;;;;3893525;22;20402;-87
2021/12/26 00:59:48;;;;;;;5.40;4.28;;;19.10;44.30;;;;;;3892720;22;20090;-88
2021/12/26 01:01:19;;;;;;;4.93;4.05;;;19.10;44.20;;;;;;3891776;22;20028;-88
2021/12/26 01:02:51;;;;;;;4.50;3.97;;;19.10;44.20;;;;;;3892763;22;20019;-87
2021/12/26 01:04:23;;;;;;;5.20;4.22;;;19.10;44.30;;;;;;3892808;22;20073;-87
2021/12/26 01:05:56;;;;;;;4.50;3.85;;;19.10;44.30;;;;;;3892630;22;20089;-87
2021/12/26 01:07:38;;;;;;;4.97;3.90;;;19.10;44.20;;;;;;3893412;22;20374;-86
2021/12/26 01:09:13;;;;;;;5.32;4.63;;;19.10;44.30;;;;;;3893507;22;20030;-86
2021/12/26 01:10:49;;;;;;;4.97;4.45;;;19.00;44.20;;;;;;3893024;22;20035;-86
2021/12/26 01:12:20;;;;;;;5.05;4.55;;;19.00;44.30;;;;;;3893291;22;20020;-86
2021/12/26 01:13:53;;;;;;;4.97;4.22;;;19.00;44.20;;;;;;3892802;22;20026;-86
2021/12/26 01:15:24;;;;;;;4.87;4.20;;;19.00;44.20;;;;;;3891460;22;20020;-85
2021/12/26 01:17:04;;;;;;;4.78;4.25;;;19.00;44.20;;;;;;3893364;22;20023;-86
2021/12/26 01:18:38;;;;;;;5.22;4.63;;;19.00;44.20;;;;;;3893403;22;20026;-86
2021/12/26 01:20:13;;;;;;;4.80;4.30;;;19.00;44.30;;;;;;3892456;22;20039;-85
2021/12/26 01:21:46;;;;;;;4.93;4.10;;;19.00;44.20;;;;;;3893685;22;20091;-86
2021/12/26 01:23:19;;;;;;;5.65;4.50;;;19.00;44.20;;;;;;3892818;22;20454;-86
2021/12/26 01:24:55;;;;;;;4.38;3.92;;;19.00;44.20;;;;;;3892115;22;20516;-87
2021/12/26 01:26:27;;;;;;;5.78;4.30;;;19.00;44.20;;;;;;3893943;22;20442;-86
2021/12/26 01:27:58;;;;;;;4.87;4.20;;;19.00;44.20;;;;;;3893519;22;20024;-87
2021/12/26 01:29:30;;;;;;;4.88;4.38;;;19.00;44.10;;;;;;3893108;22;20325;-87
2021/12/26 01:31:02;;;;;;;6.10;4.53;;;19.00;44.20;;;;;;3891356;22;20020;-87
2021/12/26 01:32:34;;;;;;;5.83;4.63;;;19.00;44.10;;;;;;3893775;22;20460;-86
2021/12/26 01:34:06;;;;;;;4.82;4.18;;;19.00;44.20;;;;;;3893721;22;20633;-87
2021/12/26 01:35:38;;;;;;;5.18;4.60;;;19.00;44.20;;;;;;3891849;22;20070;-87
2021/12/26 01:37:11;;;;;;;5.75;4.68;;;19.00;44.20;;;;;;3893629;22;20065;-86
2021/12/26 01:38:43;;;;;;;4.80;4.10;;;19.00;44.10;;;;;;3893153;22;20020;-86
2021/12/26 01:40:16;;;;;;;5.32;4.68;;;19.00;44.10;;;;;;3892044;22;20023;-87
2021/12/26 01:41:49;;;;;;;5.53;4.85;;;19.00;44.20;;;;;;3893638;22;20011;-86
2021/12/26 01:43:23;;;;;;;5.15;4.30;;;19.00;44.20;;;;;;3892315;22;20454;-87
2021/12/26 01:44:55;;;;;;;5.38;4.22;;;19.00;44.20;;;;;;3892049;22;20016;-87
2021/12/26 01:46:27;;;;;;;5.82;5.05;;;19.00;44.20;;;;;;3892416;22;20030;-87
2021/12/26 01:47:59;;;;;;;6.07;4.75;;;19.00;44.10;;;;;;3894595;22;20020;-87
2021/12/26 01:49:31;;;;;;;5.53;4.60;;;19.00;44.10;;;;;;3894465;22;20019;-86
2021/12/26 01:51:03;;;;;;;4.83;4.33;;;19.00;44.10;;;;;;3893050;22;20303;-87
2021/12/26 01:52:36;;;;;;;5.47;4.75;;;19.00;44.00;;;;;;3894408;22;20262;-86
2021/12/26 01:54:09;;;;;;;5.65;4.65;;;19.00;43.90;;;;;;3893440;22;20398;-87
2021/12/26 01:55:43;;;;;;;5.65;4.72;;;19.00;44.00;;;;;;3893847;22;20099;-86
2021/12/26 01:57:16;;;;;;;5.28;4.50;;;19.00;44.10;;;;;;3893883;22;20050;-87
2021/12/26 01:58:48;;;;;;;5.22;4.40;;;19.00;44.00;;;;;;3894409;22;20019;-86
2021/12/26 02:00:19;;;;;;;5.32;4.82;;;19.00;44.20;;;;;;3893091;22;20026;-86
2021/12/26 02:01:51;;;;;;;5.93;4.70;;;19.00;44.10;;;;;;3893754;22;20016;-87
2021/12/26 02:03:26;;;;;;;5.65;4.55;;;19.00;44.10;;;;;;3894264;22;20024;-87
2021/12/26 02:04:57;;;;;;;5.90;4.80;;;19.00;44.10;;;;;;3893602;22;20019;-86
2021/12/26 02:06:29;;;;;;;5.78;4.90;;;19.00;44.00;;;;;;3894450;22;20021;-86
2021/12/26 02:08:02;;;;;;;7.13;5.05;;;19.00;43.90;;;;;;3894493;22;20233;-86
2021/12/26 02:09:34;;;;;;;6.40;5.10;;;19.00;44.00;;;;;;3894633;22;20020;-86
2021/12/26 02:11:06;;;;;;;5.95;4.88;;;19.00;44.00;;;;;;3893395;22;20084;-86
2021/12/26 02:12:37;;;;;;;5.47;4.90;;;19.00;43.90;;;;;;3893260;22;20012;-86
2021/12/26 02:14:10;;;;;;;5.35;4.50;;;19.00;44.00;;;;;;3893895;22;20023;-86
2021/12/26 02:15:41;;;;;;;6.13;4.93;;;19.00;44.00;;;;;;3892493;22;20117;-85
2021/12/26 02:17:15;;;;;;;6.00;4.97;;;19.00;44.00;;;;;;3894307;22;20066;-85
2021/12/26 02:18:47;;;;;;;5.30;4.68;;;19.00;44.00;;;;;;3895006;22;20500;-86
2021/12/26 02:20:31;;;;;;;6.47;5.05;;;19.00;44.00;;;;;;3893652;22;20093;-87
2021/12/26 02:22:10;;;;;;;;;;;19.00;44.00;;;;;;3896357;22;20070;-86
2021/12/26 02:23:47;;;;;;;5.60;5.00;;;19.00;44.00;;;;;;3894679;22;20334;-85
2021/12/26 02:25:31;;;;;;;6.20;4.90;;;18.90;44.10;;;;;;3893821;22;20073;-86
2021/12/26 02:28:53;;;;;;;6.63;4.85;;;19.00;44.00;;;;;;3894583;22;20099;-87
2021/12/26 02:30:24;;;;;;;5.88;4.85;;;18.90;43.90;;;;;;3892796;22;20422;-85
2021/12/26 02:31:59;;;;;;;5.60;4.78;;;18.90;44.00;;;;;;3895804;22;20027;-87
2021/12/26 02:33:31;;;;;;;5.78;4.93;;;18.90;43.90;;;;;;3893790;22;20462;-86
2021/12/26 02:35:02;;;;;;;5.88;4.57;;;18.90;43.90;;;;;;3894270;22;20451;-86
2021/12/26 02:36:35;;;;;;;5.85;5.18;;;18.90;43.90;;;;;;3895537;22;20061;-87
2021/12/26 02:38:07;;;;;;;5.40;4.80;;;18.90;43.90;;;;;;3894897;22;20027;-87
2021/12/26 02:39:39;;;;;;;6.80;5.68;;;18.90;43.90;;;;;;3895314;22;20041;-86
2021/12/26 02:41:11;;;;;;;5.88;5.15;;;18.90;43.90;;;;;;3893255;22;20097;-86
2021/12/26 02:42:42;;;;;;;5.63;4.97;;;18.90;43.90;;;;;;3894990;22;20119;-86
2021/12/26 02:44:14;;;;;;;6.00;4.90;;;18.90;43.90;;;;;;3895009;22;20742;-87
2021/12/26 02:45:46;;;;;;;5.60;4.95;;;18.90;43.90;;;;;;3892133;22;20023;-86
2021/12/26 02:47:31;;;;;;;5.55;4.63;;;18.90;43.80;;;;;;3894990;22;20023;-86
2021/12/26 02:49:02;;;;;;;6.57;5.07;;;18.90;43.70;;;;;;3893945;22;20028;-86
2021/12/26 02:50:34;;;;;;;5.72;5.10;;;18.90;43.90;;;;;;3894417;22;20019;-87
2021/12/26 02:52:07;;;;;;;5.65;5.05;;;18.90;43.80;;;;;;3895277;22;20023;-87
2021/12/26 02:53:40;;;;;;;5.88;5.10;;;18.90;43.80;;;;;;3893794;22;20455;-86
2021/12/26 02:55:12;;;;;;;5.95;5.07;;;18.90;43.80;;;;;;3894102;22;20019;-86
2021/12/26 02:56:44;;;;;;;5.80;5.07;;;18.90;43.70;;;;;;3893177;22;20027;-86
2021/12/26 02:58:15;;;;;;;5.20;4.60;;;18.90;43.70;;;;;;3895301;22;20035;-86
2021/12/26 02:59:47;;;;;;;5.43;4.90;;;18.90;43.70;;;;;;3894188;22;20511;-87
2021/12/26 03:01:21;;;;;;;5.60;4.57;;;18.90;43.70;;;;;;3892957;22;20027;-87
2021/12/26 03:02:53;;;;;;;6.45;5.25;;;18.90;43.70;;;;;;3894802;22;20023;-86
2021/12/26 03:04:25;;;;;;;6.53;5.20;;;18.90;43.70;;;;;;3894044;22;20012;-87
2021/12/26 03:05:59;;;;;;;6.85;5.05;;;18.90;43.70;;;;;;3894304;22;20035;-85
2021/12/26 03:07:33;;;;;;;6.18;5.00;;;18.90;43.70;;;;;;3894663;22;20027;-87
2021/12/26 03:09:04;;;;;;;5.72;5.13;;;18.90;43.80;;;;;;3894247;22;20027;-86
2021/12/26 03:10:36;;;;;;;5.50;4.75;;;18.90;43.70;;;;;;3895275;22;20405;-84
2021/12/26 03:12:09;;;;;;;5.90;5.00;;;18.90;43.70;;;;;;3899140;22;20462;-84
2021/12/26 03:13:41;;;;;;;6.82;5.25;;;18.90;43.80;;;;;;3899104;22;20016;-86
2021/12/26 03:15:13;;;;;;;5.45;4.72;;;18.90;43.80;;;;;;3898354;22;20073;-85
2021/12/26 03:16:49;;;;;;;6.20;5.03;;;18.80;43.80;;;;;;3899769;22;20350;-85
2021/12/26 03:18:20;;;;;;;5.88;4.90;;;18.90;43.80;;;;;;3899204;22;20034;-84
2021/12/26 03:19:52;;;;;;;5.75;5.10;;;18.90;43.80;;;;;;3899488;22;20020;-85
2021/12/26 03:21:23;;;;;;;5.45;4.90;;;18.90;43.70;;;;;;3898859;22;20041;-86
2021/12/26 03:22:59;;;;;;;5.95;4.80;;;18.90;43.70;;;;;;3899505;22;20016;-84
2021/12/26 03:24:30;;;;;;;5.90;5.10;;;18.90;43.60;;;;;;3899135;22;20020;-85
2021/12/26 03:26:05;;;;;;;6.63;5.00;;;18.90;43.70;;;;;;3898966;22;20019;-85
2021/12/26 03:27:37;;;;;;;5.32;4.82;;;18.90;43.70;;;;;;3899382;22;20030;-84
2021/12/26 03:29:09;;;;;;;5.82;5.00;;;18.90;43.70;;;;;;3899478;22;20043;-85
2021/12/26 03:30:41;;;;;;;5.60;4.97;;;18.80;43.70;;;;;;3898290;22;20020;-85
2021/12/26 03:32:13;;;;;;;5.50;4.85;;;18.90;43.70;;;;;;3898811;22;20042;-86
2021/12/26 03:33:44;;;;;;;5.65;4.95;;;18.90;43.70;;;;;;3898493;22;20024;-85
2021/12/26 03:35:15;;;;;;;5.70;5.03;;;18.80;43.70;;;;;;3898871;22;20020;-84
2021/12/26 03:36:51;;;;;;;5.53;4.82;;;18.90;43.70;;;;;;3899019;22;20055;-85
2021/12/26 03:38:24;;;;;;;5.75;5.03;;;18.90;43.70;;;;;;3898932;22;20015;-85
2021/12/26 03:39:56;;;;;;;5.18;4.30;;;18.90;43.60;;;;;;3898406;22;20027;-85
2021/12/26 03:41:28;;;;;;;5.40;4.70;;;18.90;43.60;;;;;;3898934;22;20050;-84
2021/12/26 03:43:00;;;;;;;5.25;4.75;;;18.90;43.70;;;;;;3899413;22;20046;-84
2021/12/26 03:44:32;;;;;;;5.95;4.70;;;18.90;43.70;;;;;;3898726;22;20016;-86
2021/12/26 03:46:03;;;;;;;5.80;4.68;;;18.90;43.60;;;;;;3897976;22;20046;-85
2021/12/26 03:47:35;;;;;;;6.20;5.25;;;18.80;43.60;;;;;;3898977;22;20024;-85
2021/12/26 03:49:07;;;;;;;6.07;4.90;;;18.90;43.60;;;;;;3899086;22;20073;-85
2021/12/26 03:50:40;;;;;;;6.75;5.03;;;18.80;43.50;;;;;;3898600;22;20023;-84
2021/12/26 03:52:12;;;;;;;;;;;18.80;43.60;;;;;;3898957;22;20538;-85
2021/12/26 03:53:45;;;;;;;5.45;4.72;;;18.80;43.60;;;;;;3899341;22;20287;-85
2021/12/26 03:55:16;;;;;;;5.43;4.63;;;18.80;43.60;;;;;;3897957;22;20024;-85
2021/12/26 03:56:48;;;;;;;5.07;4.47;;;18.80;43.60;;;;;;3898999;22;20016;-85
2021/12/26 03:58:20;;;;;;;6.22;4.88;;;18.80;43.60;;;;;;3899056;22;20046;-85
2021/12/26 03:59:52;;;;;;;5.18;4.68;;;18.80;43.70;;;;;;3897492;22;20024;-86
2021/12/26 04:01:24;;;;;;;6.50;4.70;;;18.80;43.60;;;;;;3897303;22;20031;-84
2021/12/26 04:02:56;;;;;;;5.47;4.85;;;18.80;43.60;;;;;;3899333;22;20069;-85
2021/12/26 04:04:27;;;;;;;6.30;5.00;;;18.80;43.50;;;;;;3899120;22;20020;-85
2021/12/26 04:05:59;;;;;;;6.45;5.13;;;18.80;43.50;;;;;;3898214;22;20073;-84
2021/12/26 04:07:31;;;;;;;5.82;4.50;;;18.80;43.50;;;;;;3898572;22;20093;-84
2021/12/26 04:09:07;;;;;;;5.70;5.00;;;18.80;43.50;;;;;;3898835;22;20579;-85
2021/12/26 04:10:38;;;;;;;4.75;4.25;;;18.80;43.50;;;;;;3897699;22;20079;-85
2021/12/26 04:12:11;;;;;;;5.13;4.40;;;18.80;43.60;;;;;;3899515;22;20023;-85
2021/12/26 04:13:43;;;;;;;5.53;4.78;;;18.80;43.50;;;;;;3898957;22;20377;-85
2021/12/26 04:15:16;;;;;;;5.63;4.80;;;18.80;43.60;;;;;;3896063;22;20147;-85
2021/12/26 04:16:48;;;;;;;5.20;4.70;;;18.80;43.50;;;;;;3898824;22;20028;-84
2021/12/26 04:18:20;;;;;;;4.95;4.40;;;18.80;43.50;;;;;;3900769;22;20083;-84
2021/12/26 04:19:51;;;;;;;5.88;4.80;;;18.80;43.50;;;;;;3898878;22;20024;-85
2021/12/26 04:21:23;;;;;;;5.13;4.45;;;18.80;43.50;;;;;;3900306;22;20081;-86
2021/12/26 04:22:57;;;;;;;5.95;4.85;;;18.80;43.50;;;;;;3899760;22;20016;-85
2021/12/26 04:24:31;;;;;;;5.32;4.60;;;18.80;43.50;;;;;;3899415;22;20068;-84
2021/12/26 04:26:03;;;;;;;5.25;4.75;;;18.80;43.50;;;;;;3899426;22;20688;-85
2021/12/26 04:27:34;;;;;;;4.70;4.18;;;18.80;43.50;;;;;;3899064;22;20039;-85
2021/12/26 04:29:06;;;;;;;4.88;4.35;;;18.80;43.50;;;;;;3900843;22;20042;-85
2021/12/26 04:30:38;;;;;;;5.25;4.40;;;18.80;43.40;;;;;;3897922;22;20481;-86
2021/12/26 04:32:09;;;;;;;6.00;4.80;;;18.80;43.40;;;;;;3899046;22;20020;-84
2021/12/26 04:33:41;;;;;;;6.20;4.80;;;18.80;43.40;;;;;;3900406;22;20015;-85
2021/12/26 04:35:13;;;;;;;4.80;4.18;;;18.80;43.40;;;;;;3898006;22;20027;-86
2021/12/26 04:36:45;;;;;;;5.65;4.65;;;18.80;43.50;;;;;;3898962;22;20024;-87
2021/12/26 04:38:17;;;;;;;5.43;4.63;;;18.80;43.50;;;;;;3895587;22;20456;-87
2021/12/26 04:39:50;;;;;;;5.32;4.43;;;18.70;43.50;;;;;;3895025;22;20076;-87
2021/12/26 04:41:22;;;;;;;5.80;4.57;;;18.80;43.50;;;;;;3896126;22;20027;-87
2021/12/26 04:42:54;;;;;;;4.85;4.35;;;18.80;43.50;;;;;;3893662;22;20023;-88
2021/12/26 04:44:27;;;;;;;5.65;4.60;;;18.80;43.50;;;;;;3896363;22;20107;-87
2021/12/26 04:46:01;;;;;;;5.35;4.32;;;18.80;43.50;;;;;;3894514;22;20075;-88
2021/12/26 04:47:33;;;;;;;5.40;4.53;;;18.70;43.50;;;;;;3895144;22;20023;-87
2021/12/26 04:49:04;;;;;;;5.85;4.43;;;18.70;43.50;;;;;;3896335;22;20042;-87
2021/12/26 04:50:36;;;;;;;4.88;4.20;;;18.80;43.50;;;;;;3894174;22;20073;-88
2021/12/26 04:52:08;;;;;;;5.40;4.45;;;18.80;43.50;;;;;;3896581;22;20023;-88
2021/12/26 04:53:40;;;;;;;5.43;4.53;;;18.80;43.50;;;;;;3894199;22;20020;-88
2021/12/26 04:55:13;;;;;;;5.22;4.40;;;18.80;44.10;;;;;;3895339;22;20031;-87
2021/12/26 04:56:46;;;;;;;5.22;4.35;;;18.80;43.40;;;;;;3896388;22;20065;-87
2021/12/26 04:58:17;;;;;;;4.97;4.30;;;18.80;43.40;;;;;;3895161;22;20070;-88
2021/12/26 04:59:49;;;;;;;4.55;4.00;;;18.80;43.40;;;;;;3895237;22;20327;-87
2021/12/26 05:01:21;;;;;;;5.55;4.40;;;18.70;43.40;;;;;;3894135;22;20027;-87
2021/12/26 05:02:53;;;;;;;5.32;4.40;;;18.80;43.40;;;;;;3895215;22;20019;-87
2021/12/26 05:04:24;;;;;;;5.22;4.20;;;18.80;43.40;;;;;;3896316;22;20010;-87
2021/12/26 05:05:56;;;;;;;6.00;4.30;;;18.80;43.50;;;;;;3893821;22;20019;-87
2021/12/26 05:07:28;;;;;;;5.20;4.35;;;18.70;43.40;;;;;;3895941;22;20477;-87
2021/12/26 05:08:59;;;;;;;5.25;4.20;;;18.70;43.40;;;;;;3896775;22;20493;-85
2021/12/26 05:10:33;;;;;;;4.97;4.15;;;18.70;43.40;;;;;;3899368;22;20065;-85
2021/12/26 05:12:06;;;;;;;4.53;4.00;;;18.70;43.40;;;;;;3899193;22;20478;-84
2021/12/26 05:13:38;;;;;;;;;;;18.70;43.40;;;;;;3899071;22;20030;-85
2021/12/26 05:15:10;;;;;;;4.60;4.00;;;18.70;43.40;;;;;;3898441;22;19919;-85
2021/12/26 05:16:42;;;;;;;4.60;3.80;;;18.70;43.40;;;;;;3898704;22;20016;-85
2021/12/26 05:18:14;;;;;;;4.00;3.60;;;18.70;43.40;;;;;;3898703;22;20043;-85
2021/12/26 05:19:46;;;;;;;5.25;4.40;;;18.70;43.40;;;;;;3897367;22;20019;-85
2021/12/26 05:21:18;;;;;;;5.15;4.38;;;18.70;43.40;;;;;;3899250;22;20069;-85
2021/12/26 05:22:50;;;;;;;5.50;4.43;;;18.70;43.40;;;;;;3899813;22;20019;-85
2021/12/26 05:24:22;;;;;;;4.93;4.30;;;18.70;43.40;;;;;;3899604;22;20016;-85
2021/12/26 05:25:55;;;;;;;4.72;4.20;;;18.70;43.50;;;;;;3899633;22;20020;-85
2021/12/26 05:27:27;;;;;;;5.07;4.18;;;18.70;43.40;;;;;;3899389;22;20024;-86
2021/12/26 05:28:59;;;;;;;4.03;3.58;;;18.70;43.40;;;;;;3899320;22;20023;-85
2021/12/26 05:30:31;;;;;;;4.55;3.97;;;18.70;43.30;;;;;;3897495;22;20020;-86
2021/12/26 05:32:03;;;;;;;4.22;3.80;;;18.70;43.30;;;;;;3899385;22;20023;-85
2021/12/26 05:33:34;;;;;;;4.35;3.92;;;18.70;43.30;;;;;;3900143;22;20042;-85
2021/12/26 05:35:07;;;;;;;4.53;4.05;;;18.70;43.30;;;;;;3898706;22;20050;-85
2021/12/26 05:36:39;;;;;;;4.43;3.53;;;18.70;43.40;;;;;;3899853;22;20023;-85
2021/12/26 05:38:10;;;;;;;5.35;4.10;;;18.70;43.30;;;;;;3899607;22;20038;-85
2021/12/26 05:39:42;;;;;;;4.97;3.90;;;18.70;43.40;;;;;;3899087;22;20019;-83
2021/12/26 05:41:16;;;;;;;4.35;3.83;;;18.70;43.40;;;;;;3899316;22;20031;-85
2021/12/26 05:42:47;;;;;;;4.25;3.85;;;18.70;43.50;;;;;;3899535;22;20026;-85
2021/12/26 05:44:18;;;;;;;5.65;4.45;;;18.70;43.40;;;;;;3900214;22;20110;-85
2021/12/26 05:45:50;;;;;;;4.35;3.78;;;18.70;43.40;;;;;;3898254;22;20336;-86
2021/12/26 05:47:22;;;;;;;4.25;3.65;;;18.70;43.30;;;;;;3899750;22;20024;-85
2021/12/26 05:48:54;;;;;;;4.63;4.00;;;18.70;43.40;;;;;;3900015;22;20024;-85
2021/12/26 05:50:26;;;;;;;4.72;3.92;;;18.70;43.40;;;;;;3898907;22;20400;-85
2021/12/26 05:51:57;;;;;;;4.22;3.83;;;18.70;43.40;;;;;;3900363;22;20020;-85
2021/12/26 05:53:29;;;;;;;4.32;3.80;;;18.70;43.30;;;;;;3899960;22;20023;-85
2021/12/26 05:55:01;;;;;;;4.32;3.67;;;18.60;43.30;;;;;;3899793;22;20454;-85
2021/12/26 05:56:34;;;;;;;4.75;4.10;;;18.60;43.30;;;;;;3899569;22;20681;-85
2021/12/26 05:58:06;;;;;;;4.47;3.92;;;18.60;43.30;;;;;;3900565;22;20027;-85
2021/12/26 05:59:37;;;;;;;5.20;3.97;;;18.60;43.20;;;;;;3900291;22;20016;-85
2021/12/26 06:01:09;;;;;;;4.32;3.92;;;18.70;43.40;;;;;;3897363;22;20015;-85
2021/12/26 06:02:41;;;;;;;4.15;3.58;;;18.70;43.30;;;;;;3901049;22;20019;-85
2021/12/26 06:04:13;;;;;;;4.18;3.70;;;18.60;43.30;;;;;;3900294;22;20107;-85
2021/12/26 06:05:44;;;;;;;4.63;3.85;;;18.60;43.30;;;;;;3899965;22;20049;-85
2021/12/26 06:07:17;;;;;;;4.85;3.70;;;18.60;43.20;;;;;;3899518;22;20049;-85
2021/12/26 06:08:49;;;;;;;4.63;3.88;;;18.60;43.30;;;;;;3899559;22;20028;-85
2021/12/26 06:10:20;;;;;;;4.10;3.67;;;18.60;43.30;;;;;;3899285;22;20024;-85
2021/12/26 06:11:54;;;;;;;4.25;3.40;;;18.60;43.30;;;;;;3899619;22;20020;-85
2021/12/26 06:13:25;;;;;;;4.57;3.70;;;18.60;43.20;;;;;;3898753;22;20072;-86
2021/12/26 06:14:57;;;;;;;3.90;3.40;;;18.70;43.20;;;;;;3899596;22;20103;-86
2021/12/26 06:16:29;;;;;;;4.68;3.40;;;18.60;43.20;;;;;;3899169;22;20023;-86
2021/12/26 06:18:01;;;;;;;4.47;3.72;;;18.60;43.20;;;;;;3899574;22;20020;-85
2021/12/26 06:19:33;;;;;;;5.13;4.10;;;18.70;43.30;;;;;;3900013;22;20069;-85
2021/12/26 06:21:05;;;;;;;4.22;3.40;;;18.60;43.20;;;;;;3899236;22;20028;-84
2021/12/26 06:22:37;;;;;;;4.03;3.60;;;18.60;43.20;;;;;;3899380;22;20563;-84
2021/12/26 06:24:09;;;;;;;3.88;3.47;;;18.70;43.20;;;;;;3899800;22;20192;-85
2021/12/26 06:25:41;;;;;;;4.27;3.53;;;18.60;43.10;;;;;;3899922;22;20047;-84
2021/12/26 06:27:14;;;;;;;3.78;3.17;;;18.60;43.20;;;;;;3899710;22;20239;-85
2021/12/26 06:28:46;;;;;;;3.85;3.45;;;18.60;43.10;;;;;;3900327;22;20045;-85
2021/12/26 06:30:18;;;;;;;4.38;3.53;;;18.60;43.20;;;;;;3898313;22;20050;-85
2021/12/26 06:31:49;;;;;;;4.40;3.38;;;18.60;43.20;;;;;;3899729;22;20027;-85
2021/12/26 06:33:21;;;;;;;4.32;3.50;;;18.60;43.20;;;;;;3899192;22;20042;-84
2021/12/26 06:34:53;;;;;;;3.83;3.45;;;18.60;43.30;;;;;;3899331;22;20015;-84
2021/12/26 06:36:25;;;;;;;3.97;3.42;;;18.60;43.30;;;;;;3900672;22;20076;-86
2021/12/26 06:37:57;;;;;;;4.10;3.70;;;18.60;43.30;;;;;;3899073;22;20020;-84
2021/12/26 06:39:29;;;;;;;4.28;3.58;;;18.60;43.30;;;;;;3899798;22;20081;-86
2021/12/26 06:41:01;;;;;;;3.85;3.45;;;18.60;43.30;;;;;;3899264;22;20075;-86
2021/12/26 06:42:40;;;;;;;3.45;3.15;;;18.60;43.20;;;;;;3899190;22;20069;-86
2021/12/26 06:44:12;;;;;;;4.30;3.42;;;18.60;43.20;;;;;;3899153;22;20042;-84
2021/12/26 06:45:44;;;;;;;3.60;3.30;;;18.60;43.20;;;;;;3897887;22;20020;-85
2021/12/26 06:47:17;;;;;;;4.25;3.78;;;18.60;43.30;;;;;;3899862;22;20350;-85
2021/12/26 06:48:49;;;;;;;3.47;3.17;;;18.60;43.30;;;;;;3900578;22;20492;-85
2021/12/26 06:50:21;;;;;;;3.92;3.53;;;18.60;43.20;;;;;;3899034;22;20019;-86
2021/12/26 06:51:54;;;;;;;3.80;3.15;;;18.60;43.20;;;;;;3899658;22;20072;-84
2021/12/26 06:53:27;;;;;;;3.95;3.55;;;18.60;43.30;;;;;;3899732;22;20023;-85
2021/12/26 06:54:59;;;;;;;3.45;3.15;;;18.60;43.20;;;;;;3898818;22;20061;-86
2021/12/26 06:56:31;;;;;;;3.90;3.50;;;18.60;43.20;;;;;;3899869;22;20042;-85
2021/12/26 06:58:05;;;;;;;4.13;3.58;;;18.60;43.20;;;;;;3899781;22;20020;-84
2021/12/26 06:59:38;;;;;;;4.28;3.20;;;18.60;43.20;;;;;;3899670;22;20020;-85
2021/12/26 07:01:10;;;;;;;4.13;3.38;;;18.60;43.20;;;;;;3896791;22;20034;-85
2021/12/26 07:02:43;;;;;;;4.38;3.67;;;18.60;43.20;;;;;;3899564;22;20016;-86
2021/12/26 07:04:16;;;;;;;3.58;3.28;;;18.50;43.20;;;;;;3899915;22;20443;-84
2021/12/26 07:05:49;;;;;;;3.70;3.25;;;18.60;43.20;;;;;;3898157;22;20028;-86
2021/12/26 07:07:21;;;;;;;4.10;3.47;;;18.60;43.20;;;;;;3899219;22;20020;-85
2021/12/26 07:08:54;;;;;;;3.65;3.20;;;18.60;43.30;;;;;;3899156;22;20525;-85
2021/12/26 07:10:26;;;;;;;;;;;18.60;43.30;;;;;;3899203;22;20081;-86
2021/12/26 07:11:58;;;;;;;3.88;3.25;;;18.50;43.40;;;;;;3899528;22;20300;-85
2021/12/26 07:13:31;;;;;;;3.88;3.22;;;18.50;43.30;;;;;;3900159;22;20043;-84
2021/12/26 07:15:05;;;;;;;3.17;2.78;;;18.50;43.30;;;;;;3898869;22;20089;-84
2021/12/26 07:16:37;;;;;;;4.07;3.22;;;18.60;43.30;;;;;;3898800;22;20041;-85
2021/12/26 07:18:09;;;;;;;3.58;3.00;;;18.50;43.20;;;;;;3899947;22;20065;-85
2021/12/26 07:19:41;;;;;;;3.92;3.47;;;18.60;43.10;;;;;;3898072;22;20034;-87
2021/12/26 07:21:14;;;;;;;3.60;2.80;;;18.60;43.20;;;;;;3895878;22;20094;-86
2021/12/26 07:22:46;;;;;;;3.72;3.20;;;18.50;43.10;;;;;;3895355;22;20024;-86
2021/12/26 07:24:18;;;;;;;3.70;3.30;;;18.50;43.20;;;;;;3895494;22;20015;-86
2021/12/26 07:25:51;;;;;;;3.03;2.72;;;18.60;43.20;;;;;;3894672;22;20027;-85
2021/12/26 07:27:23;;;;;;;4.28;3.50;;;18.50;43.20;;;;;;3895356;22;20019;-85
2021/12/26 07:28:57;;;;;;;3.40;3.03;;;18.50;43.20;;;;;;3895990;22;20098;-86
2021/12/26 07:30:30;;;;;;;3.35;2.92;;;18.50;43.20;;;;;;3893335;22;20024;-85
2021/12/26 07:32:03;;;;;;;3.40;2.90;;;18.50;43.30;;;;;;3895567;22;20070;-86
2021/12/26 07:33:34;;;;;;;;;;;18.50;43.30;;;;;;3894651;22;20015;-85
2021/12/26 07:35:08;;;;;;;3.78;2.92;;;18.50;43.30;;;;;;3895081;22;19931;-86
2021/12/26 07:36:40;;;;;;;3.40;3.00;;;18.50;43.30;;;;;;3895506;22;20019;-86
2021/12/26 07:38:12;;;;;;;3.92;3.00;;;18.50;43.30;;;;;;3894615;22;20046;-86
2021/12/26 07:39:44;;;;;;;3.50;3.10;;;18.50;43.30;;;;;;3895519;22;20054;-87
2021/12/26 07:41:16;;;;;;;3.92;3.03;;;18.50;43.30;;;;;;3894718;22;20042;-88
2021/12/26 07:42:48;;;;;;;3.72;2.95;;;18.50;43.20;;;;;;3891912;22;20019;-88
2021/12/26 07:44:22;;;;;;;3.83;3.10;;;18.50;43.20;;;;;;3892539;22;20020;-88
2021/12/26 07:45:55;;;;;;;3.35;2.95;;;18.50;43.10;;;;;;3894228;22;20032;-88
2021/12/26 07:47:27;;;;;;;3.03;2.70;;;18.50;43.10;;;;;;3893910;22;20015;-87
2021/12/26 07:48:59;;;;;;;3.53;3.10;;;18.50;43.20;;;;;;3894609;22;20069;-87
2021/12/26 07:50:31;;;;;;;3.47;3.17;;;18.50;43.10;;;;;;3894564;22;20027;-89
2021/12/26 07:52:09;;;;;;;3.47;3.00;;;18.50;43.20;;;;;;3893767;22;20020;-88
2021/12/26 07:53:42;;;;;;;3.17;2.83;;;18.40;43.10;;;;;;3893260;22;20020;-88
2021/12/26 07:55:14;;;;;;;3.38;2.92;;;18.50;43.10;;;;;;3893033;22;20497;-87
2021/12/26 07:56:46;;;;;;;4.88;3.50;;;18.50;43.20;;;;;;3893900;22;20024;-88
2021/12/26 07:58:18;;;;;;;3.05;2.70;;;18.50;43.20;;;;;;3893443;22;20027;-88
2021/12/26 07:59:52;;;;;;;3.00;2.70;;;18.50;43.20;;;;;;3893049;22;20505;-88
2021/12/26 08:01:27;;;;;;;3.25;2.70;;;18.50;43.20;;;;;;3893322;22;20028;-88
2021/12/26 08:02:58;;;;;;;3.85;2.90;;;18.50;43.10;;;;;;3892810;22;20035;-87
2021/12/26 08:04:30;;;;;;;3.03;2.58;;;18.50;43.10;;;;;;3893230;22;20011;-88